Time;durP1;ratioP1;P1;durP2;ratioP2;P2;SDS_P1;SDS_P2;PMS_P1;PMS_P2;Temp;Humidity;BMP_temperature;BMP_pressure;BME280_temperature;BME280_humidity;BME280_pressure;Samples;Min_cycle;Max_cycle;Signal;HPM_P1;HPM_P2
2022/10/24 00:00:24;;;;;;;7.22;4.95;;;;;;;13.11;74.14;100612.31;1782193;78;21113;-58
2022/10/24 00:02:50;;;;;;;8.95;5.40;;;;;;;13.11;74.20;100612.31;1784006;78;21070;-57
2022/10/24 00:05:18;;;;;;;8.88;5.17;;;;;;;13.08;74.26;100613.05;1756965;79;21834;-58
2022/10/24 00:07:48;;;;;;;7.97;4.50;;;;;;;13.07;74.27;100612.22;1798346;78;21053;-58
2022/10/24 00:10:16;;;;;;;7.95;4.95;;;;;;;13.11;74.20;100608.36;1791904;78;21050;-58
2022/10/24 00:12:43;;;;;;;10.18;5.35;;;;;;;13.13;74.15;100605.09;1766106;79;21062;-59
2022/10/24 00:15:11;;;;;;;7.50;5.20;;;;;;;13.10;74.25;100601.88;1788508;78;21078;-58
2022/10/24 00:17:39;;;;;;;10.10;5.25;;;;;;;13.06;74.32;100605.25;1789832;78;21442;-57
2022/10/24 00:20:08;;;;;;;9.20;4.17;;;;;;;13.06;74.33;100609.21;1769361;79;21406;-57
2022/10/24 00:22:35;;;;;;;7.35;4.53;;;;;;;13.10;74.20;100600.56;1742967;81;21038;-57
2022/10/24 00:25:03;;;;;;;8.48;4.83;;;;;;;13.14;74.12;100607.23;1784489;78;21112;-58
2022/10/24 00:27:33;;;;;;;8.38;5.10;;;;;;;13.13;74.04;100601.12;1785230;78;21593;-57
2022/10/24 00:30:03;;;;;;;9.40;5.45;;;;;;;13.10;74.07;100601.39;1759235;78;21214;-58
2022/10/24 00:32:31;;;;;;;10.48;4.80;;;;;;;13.06;74.10;100601.28;1786178;78;21012;-58
2022/10/24 00:34:58;;;;;;;7.65;4.90;;;;;;;13.01;74.10;100596.89;1764152;79;21374;-58
2022/10/24 00:37:26;;;;;;;8.50;4.92;;;;;;;13.01;74.00;100603.49;1769672;79;21026;-58
2022/10/24 00:39:53;;;;;;;7.87;4.92;;;;;;;12.98;74.10;100602.47;1764992;79;21105;-58
2022/10/24 00:42:19;;;;;;;12.93;5.37;;;;;;;12.91;74.27;100595.55;1790080;78;21199;-58
2022/10/24 00:44:48;;;;;;;6.65;4.03;;;;;;;12.85;74.44;100600.53;1786133;78;21144;-59
2022/10/24 00:47:24;;;;;;;8.20;5.55;;;;;;;12.81;74.47;100598.64;1795125;78;21102;-58
2022/10/24 00:50:04;;;;;;;8.80;5.33;;;;;;;12.81;74.38;100613.16;1769840;79;21049;-58
2022/10/24 00:52:34;;;;;;;9.53;4.85;;;;;;;12.77;74.41;100621.81;1788630;78;21544;-58
2022/10/24 00:55:01;;;;;;;9.65;4.45;;;;;;;12.71;74.66;100622.35;1787188;78;21527;-59
2022/10/24 00:57:47;;;;;;;7.92;5.30;;;;;;;12.63;74.85;100623.48;1791322;80;21049;-58
2022/10/24 01:00:18;;;;;;;8.63;5.17;;;;;;;12.55;75.11;100619.34;1772897;78;21341;-58
2022/10/24 01:02:45;;;;;;;9.98;4.67;;;;;;;12.50;75.18;100624.99;1758770;80;21010;-58
2022/10/24 01:05:12;;;;;;;9.63;4.75;;;;;;;12.48;75.22;100624.30;1768484;80;21576;-59
2022/10/24 01:07:49;;;;;;;6.85;4.53;;;;;;;12.47;75.26;100626.56;1731700;82;22147;-59
2022/10/24 01:10:52;;;;;;;9.23;4.67;;;;;;;12.43;75.43;100633.09;1753173;81;21092;-58
2022/10/24 01:13:39;;;;;;;7.28;4.00;;;;;;;12.36;75.57;100628.80;1732220;80;21616;-58
2022/10/24 01:16:20;;;;;;;7.12;4.10;;;;;;;12.30;75.69;100630.63;1749193;80;21607;-59
2022/10/24 01:18:55;;;;;;;8.48;4.60;;;;;;;12.30;75.63;100625.34;1760529;81;21062;-58
2022/10/24 01:21:39;;;;;;;8.37;4.33;;;;;;;12.29;75.63;100623.69;1760720;80;21183;-59
2022/10/24 01:24:49;;;;;;;8.65;4.62;;;;;;;12.25;75.84;100620.48;1724214;81;21659;-58
2022/10/24 01:28:02;;;;;;;11.45;4.25;;;;;;;12.24;75.94;100628.52;1741833;80;21486;-59
2022/10/24 01:30:33;;;;;;;8.18;4.25;;;;;;;12.25;75.83;100622.25;1754062;81;21130;-58
2022/10/24 01:33:21;;;;;;;8.70;4.62;;;;;;;12.29;75.73;100626.80;1762349;80;22313;-58
2022/10/24 01:36:07;;;;;;;10.15;4.65;;;;;;;12.32;75.76;100629.18;1723484;81;21156;-58
2022/10/24 01:38:41;;;;;;;12.05;4.30;;;;;;;12.31;75.88;100622.25;1748939;81;21482;-58
2022/10/24 01:41:16;;;;;;;8.60;3.70;;;;;;;12.30;75.83;100621.88;1765080;80;21079;-58
2022/10/24 01:44:03;;;;;;;8.53;4.42;;;;;;;12.32;75.77;100627.37;1773664;80;21051;-58
2022/10/24 01:46:34;;;;;;;10.40;4.47;;;;;;;12.40;75.47;100621.46;1745138;80;21676;-58
2022/10/24 01:49:09;;;;;;;9.98;4.90;;;;;;;12.45;75.17;100616.14;1768781;80;21172;-58
2022/10/24 01:51:35;;;;;;;8.25;5.28;;;;;;;12.44;74.91;100613.16;1758634;80;20998;-58
2022/10/24 01:54:03;;;;;;;8.80;5.45;;;;;;;12.39;74.92;100614.50;1728691;81;21059;-58
2022/10/24 01:56:29;;;;;;;9.83;5.50;;;;;;;12.32;75.03;100615.49;1737723;80;21063;-58
2022/10/24 01:59:10;;;;;;;10.93;4.90;;;;;;;12.27;75.15;100617.68;1742002;80;21041;-57
2022/10/24 02:01:36;;;;;;;8.35;5.20;;;;;;;12.24;75.09;100609.55;1751645;79;21717;-59
2022/10/24 02:04:05;;;;;;;9.05;4.97;;;;;;;12.24;75.01;100613.52;1768645;79;21026;-58
2022/10/24 02:06:36;;;;;;;7.65;4.83;;;;;;;12.25;75.01;100618.30;1790847;78;21425;-59
2022/10/24 02:09:10;;;;;;;11.33;4.78;;;;;;;12.25;75.18;100621.80;1782634;78;21042;-59
2022/10/24 02:11:37;;;;;;;7.25;4.15;;;;;;;12.21;75.39;100621.68;1789659;78;21093;-59
2022/10/24 02:14:16;;;;;;;10.60;4.25;;;;;;;12.17;75.52;100621.59;1806218;78;21074;-59
2022/10/24 02:16:44;;;;;;;5.47;3.17;;;;;;;12.15;75.58;100628.77;1788962;78;21050;-59
2022/10/24 02:19:12;;;;;;;10.15;5.10;;;;;;;12.16;75.48;100626.99;1781876;78;21070;-59
2022/10/24 02:21:57;;;;;;;10.38;4.85;;;;;;;12.17;75.54;100631.28;1784418;78;21196;-59
2022/10/24 02:24:50;;;;;;;6.67;3.98;;;;;;;12.14;75.67;100630.22;1791568;78;21061;-59
2022/10/24 02:27:24;;;;;;;11.00;4.75;;;;;;;12.08;75.80;100632.89;1762998;79;21185;-58
2022/10/24 02:30:02;;;;;;;9.13;4.17;;;;;;;12.06;75.79;100629.55;1770036;79;21066;-58
2022/10/24 02:32:36;;;;;;;11.20;5.08;;;;;;;12.05;75.75;100631.36;1767032;77;21187;-58
2022/10/24 02:35:03;;;;;;;8.85;4.30;;;;;;;12.05;75.75;100628.72;1789621;78;21328;-58
2022/10/24 02:37:30;;;;;;;10.80;4.78;;;;;;;12.01;75.86;100622.00;1791549;78;21054;-58
2022/10/24 02:39:57;;;;;;;8.15;4.80;;;;;;;11.98;76.11;100623.57;1794890;78;21192;-58
2022/10/24 02:42:24;;;;;;;8.23;4.55;;;;;;;11.96;76.21;100625.50;1800699;78;21054;-58
2022/10/24 02:44:51;;;;;;;9.03;5.10;;;;;;;11.97;76.19;100625.02;1791177;78;21054;-58
2022/10/24 02:47:18;;;;;;;9.35;5.97;;;;;;;12.01;76.07;100629.92;1787187;78;21117;-58
2022/10/24 02:49:45;;;;;;;10.23;6.30;;;;;;;12.04;76.02;100627.03;1789806;78;21038;-58
2022/10/24 02:52:11;;;;;;;8.75;5.97;;;;;;;12.07;75.99;100632.55;1793638;78;21183;-59
2022/10/24 02:54:39;;;;;;;10.28;6.00;;;;;;;12.04;76.10;100634.95;1730963;80;21528;-59
2022/10/24 02:57:06;;;;;;;9.03;5.20;;;;;;;12.03;76.21;100639.85;1793972;78;21497;-58
2022/10/24 02:59:32;;;;;;;7.70;4.87;;;;;;;12.00;76.36;100641.91;1792347;78;21117;-59
2022/10/24 03:02:00;;;;;;;10.25;5.03;;;;;;;12.02;76.30;100642.16;1797705;78;21054;-59
2022/10/24 03:04:27;;;;;;;9.05;4.95;;;;;;;12.04;76.30;100640.71;1776121;79;21282;-59
2022/10/24 03:06:54;;;;;;;10.48;4.65;;;;;;;12.04;76.44;100649.95;1728344;81;21068;-58
2022/10/24 03:09:21;;;;;;;9.10;5.03;;;;;;;12.02;76.59;100654.02;1788525;78;21037;-59
2022/10/24 03:11:49;;;;;;;8.10;4.75;;;;;;;11.98;76.82;100652.58;1796560;78;21579;-59
2022/10/24 03:14:16;;;;;;;10.95;5.22;;;;;;;11.99;76.96;100658.23;1749281;81;21019;-59
2022/10/24 03:16:43;;;;;;;9.48;5.20;;;;;;;12.04;76.88;100663.13;1780481;80;21244;-58
2022/10/24 03:19:11;;;;;;;10.30;5.17;;;;;;;12.06;76.85;100664.66;1737420;81;21053;-58
2022/10/24 03:21:39;;;;;;;10.72;6.00;;;;;;;12.11;76.90;100660.83;1754770;81;21042;-58
2022/10/24 03:24:08;;;;;;;12.43;6.30;;;;;;;12.08;77.13;100666.69;1792889;78;21643;-58
2022/10/24 03:26:36;;;;;;;11.80;6.65;;;;;;;12.07;77.21;100666.34;1749333;81;21038;-59
2022/10/24 03:29:03;;;;;;;37.80;28.17;;;;;;;12.07;77.24;100670.31;1786998;78;21120;-58
2022/10/24 03:31:30;;;;;;;51.58;37.65;;;;;;;12.12;77.12;100669.94;1739985;81;21095;-58
2022/10/24 03:33:57;;;;;;;74.03;56.37;;;;;;;12.13;77.17;100663.68;1732163;81;21510;-58
2022/10/24 03:36:24;;;;;;;74.07;55.75;;;;;;;12.11;77.30;100662.97;1784369;80;21529;-58
2022/10/24 03:38:50;;;;;;;60.80;46.35;;;;;;;12.10;77.46;100664.42;1756242;81;21030;-58
2022/10/24 03:41:17;;;;;;;43.70;32.73;;;;;;;12.12;77.43;100663.34;1783025;78;21128;-58
2022/10/24 03:43:43;;;;;;;34.27;24.32;;;;;;;12.16;77.28;100662.61;1790334;78;21046;-58
2022/10/24 03:46:11;;;;;;;20.90;14.95;;;;;;;12.19;77.18;100659.23;1774597;79;21506;-58
2022/10/24 03:48:38;;;;;;;12.78;7.40;;;;;;;12.22;77.23;100657.66;1743399;81;21110;-59
2022/10/24 03:51:05;;;;;;;11.35;7.00;;;;;;;12.22;77.33;100656.80;1766611;79;21551;-59
2022/10/24 03:55:19;;;;;;;10.80;6.05;;;;;;;12.24;77.67;100657.53;1773463;79;22511;-59
2022/10/24 03:57:46;;;;;;;8.85;5.10;;;;;;;12.35;76.82;100656.14;1747672;82;21033;-59
2022/10/24 04:00:18;;;;;;;9.38;6.12;;;;;;;12.38;76.65;100659.02;1746092;82;21719;-59
2022/10/24 04:02:45;;;;;;;9.23;5.75;;;;;;;12.40;76.61;100660.55;1738674;82;21055;-59
2022/10/24 04:05:12;;;;;;;9.88;6.45;;;;;;;12.35;76.75;100661.42;1744132;82;21533;-59
2022/10/24 04:07:40;;;;;;;12.63;6.00;;;;;;;12.30;76.85;100670.20;1677122;83;21075;-59
2022/10/24 04:10:08;;;;;;;10.78;6.37;;;;;;;12.26;76.93;100672.26;1694813;84;21115;-59
2022/10/24 04:12:35;;;;;;;12.37;6.30;;;;;;;12.30;76.87;100671.52;1689699;84;21132;-59
2022/10/24 04:15:04;;;;;;;14.13;6.72;;;;;;;12.33;76.79;100677.87;1747347;81;21077;-59
2022/10/24 04:17:32;;;;;;;12.15;7.40;;;;;;;12.33;76.84;100674.41;1754719;81;21030;-58
2022/10/24 04:19:59;;;;;;;11.30;6.35;;;;;;;12.28;77.04;100674.77;1754122;81;21145;-59
2022/10/24 04:22:26;;;;;;;9.75;6.33;;;;;;;12.25;77.20;100677.66;1752177;80;21150;-59
2022/10/24 04:24:52;;;;;;;11.65;6.03;;;;;;;12.26;77.21;100681.98;1750893;81;21147;-59
2022/10/24 04:27:19;;;;;;;11.63;7.15;;;;;;;12.29;77.06;100679.10;1683404;84;21053;-59
2022/10/24 04:29:45;;;;;;;9.50;6.60;;;;;;;12.34;77.01;100682.19;1696203;84;21058;-59
2022/10/24 04:32:12;;;;;;;11.57;6.95;;;;;;;12.35;76.98;100681.70;1685704;84;21557;-59
2022/10/24 04:34:39;;;;;;;11.93;6.50;;;;;;;12.31;77.13;100682.44;1745791;81;21062;-59
2022/10/24 04:37:05;;;;;;;10.55;6.25;;;;;;;12.27;77.29;100682.32;1687445;84;21221;-59
2022/10/24 04:39:31;;;;;;;9.30;6.10;;;;;;;12.26;77.37;100680.17;1691980;84;21468;-58
2022/10/24 04:41:59;;;;;;;9.08;5.65;;;;;;;12.31;77.35;100683.77;1681869;84;21154;-58
2022/10/24 04:44:25;;;;;;;12.07;6.85;;;;;;;12.35;77.32;100684.34;1692791;84;21070;-57
2022/10/24 04:46:52;;;;;;;11.30;6.95;;;;;;;12.36;77.32;100682.90;1690515;84;21062;-57
2022/10/24 04:49:18;;;;;;;10.65;6.35;;;;;;;12.34;77.45;100691.43;1692306;84;21162;-58
2022/10/24 04:51:45;;;;;;;9.25;6.05;;;;;;;12.30;77.72;100688.67;1690791;84;21138;-58
2022/10/24 04:54:11;;;;;;;13.08;6.75;;;;;;;12.31;77.77;100696.95;1745069;81;21063;-58
2022/10/24 04:56:38;;;;;;;11.10;6.80;;;;;;;12.35;77.74;100702.32;1668468;85;21153;-58
2022/10/24 04:59:05;;;;;;;9.35;6.50;;;;;;;12.36;77.81;100696.09;1663450;85;21115;-57
2022/10/24 05:01:31;;;;;;;14.73;7.35;;;;;;;12.33;78.03;100706.89;1685014;83;21451;-57
2022/10/24 05:03:58;;;;;;;9.78;6.55;;;;;;;12.33;78.19;100707.39;1682230;83;21081;-58
2022/10/24 05:06:25;;;;;;;10.82;6.03;;;;;;;12.34;78.23;100705.08;1652086;85;21101;-58
2022/10/24 05:08:51;;;;;;;10.85;6.83;;;;;;;12.38;78.09;100711.31;1684070;84;21072;-58
2022/10/24 05:11:18;;;;;;;10.60;7.20;;;;;;;12.43;78.00;100708.30;1654792;85;21743;-58
2022/10/24 05:13:44;;;;;;;9.00;6.22;;;;;;;12.44;77.97;100704.70;1683135;84;22937;-58
2022/10/24 05:16:11;;;;;;;10.63;7.28;;;;;;;12.43;78.07;100712.25;1658516;85;21390;-58
2022/10/24 05:18:38;;;;;;;11.15;7.03;;;;;;;12.42;78.14;100714.06;1671765;85;21072;-57
2022/10/24 05:21:04;;;;;;;10.10;6.70;;;;;;;12.42;78.22;100716.70;1658523;84;21015;-58
2022/10/24 05:23:31;;;;;;;12.68;8.23;;;;;;;12.48;78.12;100719.31;1693934;84;21095;-57
2022/10/24 05:25:57;;;;;;;11.48;7.50;;;;;;;12.53;78.04;100723.72;1663530;85;21292;-58
2022/10/24 05:28:24;;;;;;;15.45;8.55;;;;;;;12.56;78.06;100720.84;1682802;84;21126;-58
2022/10/24 05:30:50;;;;;;;14.55;8.38;;;;;;;12.55;78.12;100727.56;1650257;85;21794;-58
2022/10/24 05:33:17;;;;;;;13.65;7.35;;;;;;;12.56;78.06;100725.28;1686332;84;21055;-57
2022/10/24 05:35:44;;;;;;;13.00;8.03;;;;;;;12.58;77.96;100729.45;1692223;84;21124;-58
2022/10/24 05:38:10;;;;;;;16.35;10.65;;;;;;;12.62;77.95;100731.36;1677197;84;21265;-58
2022/10/24 05:40:37;;;;;;;14.93;10.38;;;;;;;12.63;78.02;100729.08;1671111;84;21079;-58
2022/10/24 05:43:03;;;;;;;14.38;7.03;;;;;;;12.62;78.08;100729.58;1732789;81;21518;-58
2022/10/24 05:45:30;;;;;;;13.38;7.00;;;;;;;12.63;78.06;100730.41;1743964;82;21070;-58
2022/10/24 05:47:57;;;;;;;9.93;6.37;;;;;;;12.69;77.95;100736.47;1737696;82;21062;-58
2022/10/24 05:50:25;;;;;;;12.05;7.45;;;;;;;12.74;77.86;100730.35;1723327;82;21129;-58
2022/10/24 05:52:53;;;;;;;11.28;7.30;;;;;;;12.79;77.76;100733.45;1730566;82;21054;-58
2022/10/24 05:55:19;;;;;;;11.65;7.72;;;;;;;12.80;77.80;100739.06;1713826;82;21015;-58
2022/10/24 05:57:46;;;;;;;9.83;6.83;;;;;;;12.79;77.82;100736.09;1730226;82;21415;-57
2022/10/24 06:00:14;;;;;;;11.88;6.55;;;;;;;12.83;77.76;100735.34;1724981;82;21110;-57
2022/10/24 06:02:41;;;;;;;11.12;6.75;;;;;;;12.89;77.52;100744.05;1729700;82;21590;-58
2022/10/24 06:05:10;;;;;;;15.72;7.90;;;;;;;12.95;77.39;100744.03;1722920;82;21562;-58
2022/10/24 06:07:38;;;;;;;10.03;6.55;;;;;;;12.99;77.39;100742.33;1719592;82;21027;-58
2022/10/24 06:10:05;;;;;;;13.35;6.80;;;;;;;13.00;77.39;100753.23;1724737;82;21063;-58
2022/10/24 06:12:32;;;;;;;11.35;7.50;;;;;;;12.98;77.37;100748.56;1665947;85;21086;-59
2022/10/24 06:15:00;;;;;;;10.82;6.47;;;;;;;13.01;77.35;100744.81;1724579;82;21140;-59
2022/10/24 06:17:27;;;;;;;10.05;6.25;;;;;;;13.12;77.19;100746.56;1733961;82;21613;-58
2022/10/24 06:19:53;;;;;;;9.90;6.37;;;;;;;13.21;77.01;100751.05;1736645;82;21000;-59
2022/10/24 06:22:23;;;;;;;11.22;6.70;;;;;;;13.32;77.05;100754.14;1671020;85;21089;-59
2022/10/24 06:24:49;;;;;;;12.53;6.80;;;;;;;13.42;77.10;100751.06;1651663;86;21051;-59
2022/10/24 06:27:16;;;;;;;11.15;6.28;;;;;;;13.51;76.75;100749.42;1731277;82;21298;-59
2022/10/24 06:29:43;;;;;;;11.00;6.12;;;;;;;13.55;76.20;100753.00;1736602;82;21087;-59
2022/10/24 06:32:10;;;;;;;11.18;6.97;;;;;;;13.61;75.82;100754.75;1717942;82;21122;-59
2022/10/24 06:34:37;;;;;;;10.60;6.78;;;;;;;13.69;75.85;100755.75;1672077;85;21519;-59
2022/10/24 06:37:04;;;;;;;11.93;7.40;;;;;;;13.92;75.28;100760.85;1713254;82;21569;-59
2022/10/24 06:39:32;;;;;;;12.58;7.90;;;;;;;13.91;75.23;100764.45;1646183;84;21323;-59
2022/10/24 06:41:59;;;;;;;12.43;7.45;;;;;;;14.00;75.04;100759.66;1727466;82;21024;-59
2022/10/24 06:44:26;;;;;;;11.10;6.65;;;;;;;14.04;74.66;100758.93;1716525;82;20972;-59
2022/10/24 06:46:53;;;;;;;9.75;6.35;;;;;;;14.05;74.35;100757.44;1733955;82;21082;-59
2022/10/24 06:49:19;;;;;;;14.05;7.75;;;;;;;14.13;74.04;100766.03;1736837;82;21094;-58
2022/10/24 06:51:46;;;;;;;12.73;6.80;;;;;;;14.21;73.58;100774.62;1671893;84;21142;-58
2022/10/24 06:54:12;;;;;;;10.68;7.42;;;;;;;14.31;73.17;100775.47;1736764;82;21072;-59
2022/10/24 06:56:39;;;;;;;11.35;7.30;;;;;;;14.27;73.09;100774.91;1734084;81;21031;-59
2022/10/24 06:59:11;;;;;;;12.07;7.58;;;;;;;14.32;72.83;100781.09;1743187;82;21031;-58
2022/10/24 07:01:38;;;;;;;12.05;7.28;;;;;;;14.25;72.58;100778.16;1727443;82;21521;-58
2022/10/24 07:04:05;;;;;;;13.80;7.72;;;;;;;14.15;72.65;100776.48;1716266;82;21288;-58
2022/10/24 07:06:32;;;;;;;10.53;7.00;;;;;;;14.10;72.86;100787.47;1729910;82;21067;-58
2022/10/24 07:09:00;;;;;;;18.65;7.70;;;;;;;14.04;72.92;100780.92;1717666;82;21070;-59
2022/10/24 07:11:27;;;;;;;12.23;7.95;;;;;;;14.02;73.06;100779.37;1645241;85;21098;-58
2022/10/24 07:13:56;;;;;;;12.35;7.67;;;;;;;13.98;73.31;100777.48;1659731;84;21071;-58
2022/10/24 07:16:23;;;;;;;17.25;8.25;;;;;;;13.98;73.35;100778.81;1655410;85;21142;-58
2022/10/24 07:18:50;;;;;;;10.63;7.37;;;;;;;13.91;73.51;100779.83;1667659;85;21157;-58
2022/10/24 07:21:26;;;;;;;13.28;8.08;;;;;;;13.92;73.65;100787.30;1670655;85;21082;-58
2022/10/24 07:23:53;;;;;;;15.40;8.87;;;;;;;13.96;73.60;100785.22;1648108;84;21758;-58
2022/10/24 07:26:21;;;;;;;13.58;8.43;;;;;;;14.01;73.62;100780.36;1653929;85;21094;-58
2022/10/24 07:28:52;;;;;;;11.73;7.42;;;;;;;14.06;73.62;100781.61;1662037;84;21723;-58
2022/10/24 07:31:17;;;;;;;11.45;8.15;;;;;;;14.05;73.60;100783.07;1659697;84;21070;-58
2022/10/24 07:33:43;;;;;;;12.82;8.60;;;;;;;14.03;73.52;100780.56;1688631;84;21530;-58
2022/10/24 07:36:16;;;;;;;12.40;7.30;;;;;;;13.98;73.67;100779.30;1658098;85;21130;-58
2022/10/24 07:38:44;;;;;;;9.38;6.85;;;;;;;13.98;73.79;100774.84;1671291;84;21074;-58
2022/10/24 07:41:10;;;;;;;20.17;9.10;;;;;;;14.04;73.66;100776.13;1663099;85;21146;-58
2022/10/24 07:43:38;;;;;;;10.85;8.10;;;;;;;14.12;73.43;100769.17;1672694;83;21074;-58
2022/10/24 07:46:07;;;;;;;14.75;8.80;;;;;;;14.13;73.52;100784.06;1645875;85;21134;-58
2022/10/24 07:48:35;;;;;;;11.25;8.03;;;;;;;14.23;73.20;100777.47;1695310;83;21089;-59
2022/10/24 07:51:05;;;;;;;11.43;7.62;;;;;;;14.25;73.03;100786.10;1663099;85;21026;-58
2022/10/24 07:53:32;;;;;;;13.28;8.15;;;;;;;14.23;73.02;100781.44;1692465;83;21856;-58
2022/10/24 07:55:59;;;;;;;19.42;8.70;;;;;;;14.19;73.07;100784.02;1668887;85;21067;-59
2022/10/24 07:58:26;;;;;;;13.72;8.98;;;;;;;14.21;73.15;100781.23;1683387;84;21054;-58
2022/10/24 08:00:52;;;;;;;13.20;9.08;;;;;;;14.24;73.17;100776.97;1672864;84;21074;-58
2022/10/24 08:03:21;;;;;;;15.90;8.00;;;;;;;14.22;73.27;100773.17;1719692;82;21066;-58
2022/10/24 08:05:47;;;;;;;13.88;8.35;;;;;;;14.28;73.24;100779.22;1719426;82;21141;-58
2022/10/24 08:08:15;;;;;;;14.38;8.80;;;;;;;14.47;72.70;100775.77;1664424;84;21090;-58
2022/10/24 08:10:42;;;;;;;15.03;9.68;;;;;;;14.56;72.49;100777.20;1714931;83;21055;-58
2022/10/24 08:13:09;;;;;;;13.15;8.93;;;;;;;14.61;72.25;100779.84;1674897;84;21101;-58
2022/10/24 08:15:35;;;;;;;14.38;8.13;;;;;;;14.66;72.29;100776.28;1715669;82;21066;-58
2022/10/24 08:18:04;;;;;;;22.48;8.78;;;;;;;14.73;71.81;100777.06;1691122;83;21240;-58
2022/10/24 08:20:32;;;;;;;12.73;8.03;;;;;;;14.68;71.80;100775.65;1721001;82;21138;-58
2022/10/24 08:22:59;;;;;;;13.83;9.95;;;;;;;14.76;71.98;100775.42;1735045;82;21098;-58
2022/10/24 08:25:26;;;;;;;13.88;8.48;;;;;;;14.93;71.52;100780.03;1729315;82;21070;-58
2022/10/24 08:27:52;;;;;;;14.93;8.30;;;;;;;14.96;71.26;100776.24;1735158;82;21066;-58
2022/10/24 08:30:19;;;;;;;15.08;8.88;;;;;;;14.96;70.98;100773.59;1716585;82;21249;-58
2022/10/24 08:32:46;;;;;;;16.73;8.93;;;;;;;14.86;71.04;100778.91;1718432;82;21550;-58
2022/10/24 08:35:18;;;;;;;12.05;8.18;;;;;;;14.85;71.00;100778.58;1737475;82;21068;-58
2022/10/24 08:37:45;;;;;;;12.07;8.38;;;;;;;14.93;70.75;100776.52;1725765;82;21066;-58
2022/10/24 08:40:15;;;;;;;12.33;8.83;;;;;;;15.02;70.61;100766.41;1716248;82;21542;-58
2022/10/24 08:42:42;;;;;;;14.80;9.93;;;;;;;15.05;70.52;100769.61;1733737;82;21032;-58
2022/10/24 08:45:29;;;;;;;15.48;9.35;;;;;;;15.08;70.56;100774.27;1744764;82;21063;-58
2022/10/24 08:48:14;;;;;;;15.50;10.58;;;;;;;15.09;70.55;100772.80;1731567;82;21062;-58
2022/10/24 08:50:42;;;;;;;13.48;9.25;;;;;;;15.07;70.37;100768.14;1719478;82;21055;-58
2022/10/24 08:53:16;;;;;;;13.62;9.08;;;;;;;15.09;70.08;100782.58;1729887;80;21149;-59
2022/10/24 08:55:49;;;;;;;12.55;9.15;;;;;;;15.11;69.89;100768.69;1711953;82;21214;-58
2022/10/24 08:58:24;;;;;;;13.53;9.30;;;;;;;14.98;70.35;100773.81;1719723;82;21034;-58
2022/10/24 09:00:53;;;;;;;14.25;9.70;;;;;;;14.96;70.52;100770.48;1711700;82;21059;-58
2022/10/24 09:03:28;;;;;;;14.00;9.43;;;;;;;14.96;70.56;100766.97;1652866;85;21105;-58
2022/10/24 09:05:59;;;;;;;13.20;9.00;;;;;;;14.94;70.46;100779.03;1707335;83;21075;-57
2022/10/24 09:08:47;;;;;;;13.10;8.48;;;;;;;14.95;70.40;100779.89;1723113;82;21892;-57
2022/10/24 09:11:22;;;;;;;15.23;8.90;;;;;;;15.00;70.13;100781.62;1722519;82;21059;-57
2022/10/24 09:13:49;;;;;;;12.65;8.40;;;;;;;15.01;70.04;100778.84;1733856;80;21060;-57
2022/10/24 09:16:19;;;;;;;12.58;8.40;;;;;;;15.02;69.96;100778.34;1709790;82;21080;-57
2022/10/24 09:18:47;;;;;;;10.48;6.67;;;;;;;15.00;69.96;100779.80;1662452;85;21097;-57
2022/10/24 09:21:15;;;;;;;13.05;7.95;;;;;;;14.98;69.74;100783.09;1651779;85;21233;-57
2022/10/24 09:23:42;;;;;;;17.67;7.55;;;;;;;14.99;69.47;100779.45;1665470;85;21692;-58
2022/10/24 09:26:16;;;;;;;11.93;7.67;;;;;;;15.03;69.32;100785.33;1674956;85;20997;-58
2022/10/24 09:28:43;;;;;;;10.23;6.33;;;;;;;15.06;69.22;100785.02;1731007;82;21024;-58
2022/10/24 09:31:19;;;;;;;13.45;7.37;;;;;;;15.05;68.68;100784.19;1651274;85;21065;-58
2022/10/24 09:33:47;;;;;;;12.75;7.28;;;;;;;15.03;68.75;100788.80;1676951;85;21886;-58
2022/10/24 09:36:16;;;;;;;10.82;6.37;;;;;;;15.02;68.64;100780.48;1729676;81;21142;-58
2022/10/24 09:38:43;;;;;;;10.98;6.87;;;;;;;15.02;68.52;100781.81;1726641;82;21086;-58
2022/10/24 09:41:25;;;;;;;12.73;7.58;;;;;;;15.07;68.47;100776.59;1672024;85;21066;-58
2022/10/24 09:43:55;;;;;;;16.85;7.90;;;;;;;15.15;68.23;100780.70;1675075;85;21090;-58
2022/10/24 09:46:28;;;;;;;11.12;7.85;;;;;;;15.20;68.25;100785.91;1738655;82;21235;-58
2022/10/24 09:48:59;;;;;;;13.08;8.25;;;;;;;15.21;68.19;100784.08;1729240;82;21027;-58
2022/10/24 09:51:39;;;;;;;15.45;7.90;;;;;;;15.18;68.07;100779.92;1736399;82;20989;-58
2022/10/24 09:54:22;;;;;;;11.85;6.42;;;;;;;15.16;68.09;100778.38;1721280;82;21139;-58
2022/10/24 09:57:13;;;;;;;9.18;6.47;;;;;;;15.15;68.14;100778.05;1731192;81;21572;-58
2022/10/24 09:59:59;;;;;;;8.80;6.28;;;;;;;15.20;67.81;100775.30;1724655;82;21719;-59
2022/10/24 10:02:33;;;;;;;;;;;;;;;15.22;67.83;100776.48;1725776;82;21046;-58
2022/10/24 10:05:06;;;;;;;12.15;7.42;;;;;;;15.22;67.90;100777.81;1742967;82;20171;-57
2022/10/24 10:07:38;;;;;;;11.13;7.40;;;;;;;15.20;67.73;100783.75;1671248;85;21104;-57
2022/10/24 10:10:31;;;;;;;11.18;8.03;;;;;;;15.16;67.66;100782.34;1671478;85;21077;-57
2022/10/24 10:13:13;;;;;;;13.95;7.92;;;;;;;15.11;67.73;100784.59;1684965;84;22078;-58
2022/10/24 10:15:45;;;;;;;14.20;8.65;;;;;;;15.10;67.87;100787.74;1699052;83;21058;-57
2022/10/24 10:18:34;;;;;;;12.13;8.45;;;;;;;15.14;67.83;100787.79;1686576;84;21102;-58
2022/10/24 10:21:14;;;;;;;14.75;9.23;;;;;;;15.14;67.92;100782.48;1719746;82;21082;-58
2022/10/24 10:23:48;;;;;;;13.20;9.13;;;;;;;15.22;67.72;100784.44;1736433;81;22287;-58
2022/10/24 10:26:21;;;;;;;14.18;9.65;;;;;;;15.19;67.82;100784.72;1729713;82;21243;-58
2022/10/24 10:28:59;;;;;;;12.65;8.80;;;;;;;15.13;67.87;100779.52;1738672;82;21058;-59
2022/10/24 10:31:43;;;;;;;15.43;8.50;;;;;;;15.13;68.00;100786.61;1732946;82;21106;-57
2022/10/24 10:34:37;;;;;;;11.95;7.55;;;;;;;15.14;67.77;100777.69;1736708;82;21050;-59
2022/10/24 10:37:24;;;;;;;10.75;8.00;;;;;;;15.12;67.59;100783.63;1745198;82;22083;-58
2022/10/24 10:40:15;;;;;;;11.63;7.97;;;;;;;15.07;67.65;100784.55;1718313;82;21154;-58
2022/10/24 10:43:03;;;;;;;11.95;7.75;;;;;;;14.96;67.77;100782.87;1742254;82;21111;-58
2022/10/24 10:45:49;;;;;;;14.75;7.85;;;;;;;14.95;68.05;100782.55;1736729;81;21110;-58
2022/10/24 10:48:31;;;;;;;11.78;7.03;;;;;;;14.92;68.15;100781.00;1738681;81;21063;-58
2022/10/24 10:51:13;;;;;;;12.58;8.00;;;;;;;14.96;68.00;100775.78;1672082;84;21597;-58
2022/10/24 10:53:51;;;;;;;11.10;7.55;;;;;;;15.00;68.18;100769.20;1653140;84;21231;-57
2022/10/24 10:56:26;;;;;;;12.18;7.83;;;;;;;15.01;68.05;100756.78;1670649;84;21151;-57
2022/10/24 10:59:01;;;;;;;10.18;7.40;;;;;;;15.00;68.12;100761.25;1681922;84;21082;-58
2022/10/24 11:01:51;;;;;;;8.85;6.00;;;;;;;15.01;68.00;100756.31;1678445;84;21150;-58
2022/10/24 11:04:44;;;;;;;10.10;6.10;;;;;;;15.03;67.59;100758.33;1684782;84;21494;-57
2022/10/24 11:07:19;;;;;;;10.72;6.12;;;;;;;15.13;67.46;100764.08;1646452;84;22145;-58
2022/10/24 11:09:48;;;;;;;13.23;6.37;;;;;;;15.18;67.42;100764.02;1674134;85;21590;-57
2022/10/24 11:12:31;;;;;;;10.28;7.67;;;;;;;15.18;67.54;100767.13;1686098;84;21558;-58
2022/10/24 11:15:24;;;;;;;11.53;7.53;;;;;;;15.18;67.64;100773.76;1628159;85;21161;-58
2022/10/24 11:18:28;;;;;;;8.83;6.85;;;;;;;15.15;67.74;100776.72;1662039;84;21041;-57
2022/10/24 11:21:07;;;;;;;9.38;6.70;;;;;;;15.19;67.59;100774.94;1683462;85;21287;-57
2022/10/24 11:24:02;;;;;;;10.20;7.45;;;;;;;15.24;67.20;100770.55;1670274;84;21086;-57
2022/10/24 11:26:49;;;;;;;10.65;7.70;;;;;;;15.22;67.11;100766.71;1674415;84;21137;-57
2022/10/24 11:29:30;;;;;;;11.20;7.85;;;;;;;15.10;67.48;100762.56;1678855;84;21034;-57
2022/10/24 11:32:01;;;;;;;13.03;8.15;;;;;;;15.00;67.79;100768.38;1680725;84;21088;-57
2022/10/24 11:34:41;;;;;;;11.55;7.55;;;;;;;14.94;67.79;100763.14;1670564;85;21071;-57
2022/10/24 11:37:21;;;;;;;10.50;7.40;;;;;;;14.96;67.91;100766.97;1670118;84;21072;-57
2022/10/24 11:40:08;;;;;;;12.80;7.47;;;;;;;14.97;67.47;100780.08;1687755;84;21526;-58